X  Close Metar Aviation Weather Data     CYYC Calgary International Airport
Temperature
-1°C Temperature
-12°C Dewpoint
43% Humidity



Wind
10 KM/H
6 MPH
3 M/S
5 KTS



190°
South
Current Conditions

Clear Clear
Pressure 1030.12 (hPa) - 30.42 (inHg)
Visibility 14.9 (mile) - 24 (km)
Airport
Airport-code CYYC

Location: Calgary International Airport
Distance: 4 (km)

Metar:
CYYC 140700Z 19005KT 15SM SKC M01/M12 A3042 RMK SLP348

Time: 14-04-2021 01:00 MDT